Time;durP1;ratioP1;P1;durP2;ratioP2;P2;SDS_P1;SDS_P2;PMS_P1;PMS_P2;Temp;Humidity;BMP_temperature;BMP_pressure;BME280_temperature;BME280_humidity;BME280_pressure;Samples;Min_cycle;Max_cycle;Signal;HPM_P1;HPM_P2
2022/10/10 00:01:58;;;;;;;7.18;3.40;;;10.20;99.90;;;;;;5094188;28;20119;-75
2022/10/10 00:04:24;;;;;;;6.63;3.40;;;10.20;99.90;;;;;;5095693;28;20124;-76
2022/10/10 00:06:50;;;;;;;7.57;3.30;;;11.00;99.90;;;;;;5095421;28;20056;-75
2022/10/10 00:09:16;;;;;;;8.40;3.35;;;10.10;99.90;;;;;;5112230;28;20043;-75
2022/10/10 00:11:41;;;;;;;6.38;3.20;;;10.30;99.90;;;;;;5108064;28;20495;-75
2022/10/10 00:14:07;;;;;;;8.18;3.70;;;10.90;99.90;;;;;;5108270;28;20040;-75
2022/10/10 00:16:33;;;;;;;7.30;3.33;;;11.60;99.90;;;;;;5096210;28;20051;-75
2022/10/10 00:18:59;;;;;;;6.72;3.60;;;10.10;99.90;;;;;;5094282;28;20043;-75
2022/10/10 00:21:24;;;;;;;9.10;3.47;;;10.10;99.90;;;;;;5094117;28;20507;-75
2022/10/10 00:23:50;;;;;;;6.40;3.50;;;10.00;99.90;;;;;;5075559;28;20036;-75
2022/10/10 00:26:16;;;;;;;9.25;3.20;;;10.00;99.90;;;;;;5093954;28;20385;-75
2022/10/10 00:28:41;;;;;;;8.10;3.55;;;9.90;99.90;;;;;;5094109;28;20137;-75
2022/10/10 00:31:08;;;;;;;7.82;3.60;;;9.90;99.90;;;;;;5109312;28;20081;-75
2022/10/10 00:33:34;;;;;;;7.30;3.70;;;10.80;99.90;;;;;;5092730;28;20088;-75
2022/10/10 00:36:00;;;;;;;6.18;3.40;;;10.30;99.90;;;;;;5091679;28;20377;-75
2022/10/10 00:38:25;;;;;;;7.22;3.47;;;9.80;99.90;;;;;;5075477;28;20059;-75
2022/10/10 00:40:54;;;;;;;7.72;3.60;;;9.80;99.90;;;;;;5075551;28;20051;-75
2022/10/10 00:43:21;;;;;;;5.30;3.30;;;10.10;99.90;;;;;;5094673;28;20168;-75
2022/10/10 00:45:47;;;;;;;9.57;3.60;;;10.80;99.90;;;;;;5058621;28;20043;-75
2022/10/10 00:48:28;;;;;;;7.45;3.55;;;9.80;99.90;;;;;;5093657;28;20143;-76
2022/10/10 00:51:01;;;;;;;6.47;3.45;;;9.80;99.90;;;;;;5091563;28;20079;-75
2022/10/10 00:53:47;;;;;;;7.90;3.97;;;9.70;99.90;;;;;;5093048;28;20492;-75
2022/10/10 00:56:16;;;;;;;6.43;3.50;;;9.70;99.90;;;;;;5084724;28;20048;-75
2022/10/10 00:58:46;;;;;;;5.55;3.60;;;10.40;99.90;;;;;;5082117;28;20039;-75
2022/10/10 01:01:11;;;;;;;9.82;3.80;;;11.10;99.90;;;;;;5111686;28;20050;-75
2022/10/10 01:03:37;;;;;;;8.05;3.55;;;11.10;99.90;;;;;;5111406;28;20036;-75
2022/10/10 01:06:04;;;;;;;6.35;3.88;;;9.70;99.90;;;;;;5111083;28;20109;-75
2022/10/10 01:08:29;;;;;;;7.05;3.70;;;9.60;99.90;;;;;;5096889;28;20130;-75
2022/10/10 01:11:04;;;;;;;7.60;3.53;;;9.80;99.90;;;;;;5108578;28;20122;-76
2022/10/10 01:13:46;;;;;;;8.68;3.92;;;9.70;99.90;;;;;;5113759;28;20138;-75
2022/10/10 01:16:28;;;;;;;8.55;3.60;;;9.60;99.90;;;;;;5100497;28;20113;-75
2022/10/10 01:19:21;;;;;;;6.07;3.53;;;9.60;99.90;;;;;;5073687;28;20113;-75
2022/10/10 01:21:49;;;;;;;5.13;3.38;;;9.60;99.90;;;;;;5105263;28;20078;-75
2022/10/10 01:24:40;;;;;;;6.63;3.70;;;9.50;99.90;;;;;;5113063;28;20052;-75
2022/10/10 01:27:26;;;;;;;6.05;3.50;;;9.60;99.90;;;;;;5080849;28;20492;-75
2022/10/10 01:29:56;;;;;;;5.47;3.25;;;9.50;99.90;;;;;;5093235;28;20040;-75
2022/10/10 01:32:28;;;;;;;5.78;3.60;;;9.80;99.90;;;;;;5092731;28;20048;-75
2022/10/10 01:35:31;;;;;;;6.45;3.88;;;9.40;99.90;;;;;;5074188;28;20088;-75
2022/10/10 01:38:10;;;;;;;6.85;3.78;;;9.40;99.90;;;;;;5093776;28;20131;-75
2022/10/10 01:41:07;;;;;;;7.30;3.70;;;10.50;99.90;;;;;;5102116;28;20395;-75
2022/10/10 01:43:35;;;;;;;5.95;3.33;;;9.40;99.90;;;;;;5111638;28;20051;-75
2022/10/10 01:46:10;;;;;;;6.07;3.92;;;9.50;99.90;;;;;;5076989;28;20062;-75
2022/10/10 01:48:36;;;;;;;7.10;3.70;;;9.50;99.90;;;;;;5113446;28;20043;-75
2022/10/10 01:51:30;;;;;;;6.25;3.72;;;9.40;99.90;;;;;;5111167;28;20043;-75
2022/10/10 01:54:24;;;;;;;10.35;4.05;;;9.40;99.90;;;;;;5094342;28;20047;-75
2022/10/10 01:57:10;;;;;;;8.00;3.75;;;9.40;99.90;;;;;;5112240;28;20047;-75
2022/10/10 01:59:36;;;;;;;7.53;3.65;;;9.40;99.90;;;;;;5113016;28;20035;-75
2022/10/10 02:02:07;;;;;;;7.95;4.07;;;10.30;99.90;;;;;;5112571;28;20412;-75
2022/10/10 02:04:47;;;;;;;7.85;3.75;;;9.40;99.90;;;;;;5112952;28;20036;-75
2022/10/10 02:07:26;;;;;;;6.88;4.00;;;10.00;99.90;;;;;;5112418;28;20048;-75
2022/10/10 02:09:53;;;;;;;6.30;3.80;;;9.30;99.90;;;;;;5090660;28;20397;-75
2022/10/10 02:12:20;;;;;;;10.65;4.07;;;9.30;99.90;;;;;;5091771;28;20136;-75
2022/10/10 02:14:50;;;;;;;7.80;4.18;;;9.30;99.90;;;;;;5092404;28;20043;-75
2022/10/10 02:17:17;;;;;;;7.25;4.07;;;10.40;99.90;;;;;;5073915;28;20109;-75
2022/10/10 02:19:46;;;;;;;8.85;4.25;;;9.30;99.90;;;;;;5092398;28;20040;-75
2022/10/10 02:22:16;;;;;;;6.43;4.00;;;9.30;99.90;;;;;;5073916;28;20138;-75
2022/10/10 02:24:42;;;;;;;7.85;4.40;;;9.30;99.90;;;;;;5092493;28;20408;-75
2022/10/10 02:27:13;;;;;;;9.32;4.30;;;9.20;99.90;;;;;;5092114;28;20044;-75
2022/10/10 02:29:42;;;;;;;9.85;4.00;;;9.20;99.90;;;;;;5075726;28;20135;-75
2022/10/10 02:32:10;;;;;;;7.63;4.20;;;9.70;99.90;;;;;;5078969;28;20039;-75
2022/10/10 02:34:40;;;;;;;6.90;3.97;;;10.30;99.90;;;;;;5091993;28;20412;-75
2022/10/10 02:37:11;;;;;;;7.30;4.13;;;9.10;99.90;;;;;;5087667;28;20051;-75
2022/10/10 02:39:45;;;;;;;6.07;3.72;;;9.10;99.90;;;;;;5110749;28;20460;-75
2022/10/10 02:42:15;;;;;;;8.15;4.35;;;9.10;99.90;;;;;;5092968;28;20135;-75
2022/10/10 02:44:41;;;;;;;8.90;4.28;;;9.00;99.90;;;;;;5091895;28;20035;-75
2022/10/10 02:47:07;;;;;;;8.13;4.45;;;9.10;99.90;;;;;;5093957;28;20458;-75
2022/10/10 02:49:34;;;;;;;6.90;4.32;;;9.10;99.90;;;;;;5077914;28;20131;-75
2022/10/10 02:52:00;;;;;;;5.90;4.13;;;9.10;99.90;;;;;;5093413;28;20362;-75
2022/10/10 02:54:26;;;;;;;6.38;4.20;;;9.10;99.90;;;;;;5094943;28;20040;-75
2022/10/10 02:56:52;;;;;;;9.88;4.72;;;9.10;99.90;;;;;;5095798;28;20172;-75
2022/10/10 02:59:18;;;;;;;7.30;4.53;;;9.00;99.90;;;;;;5095405;28;20083;-75
2022/10/10 03:01:44;;;;;;;8.32;4.55;;;10.30;99.90;;;;;;5105978;28;20071;-75
2022/10/10 03:04:10;;;;;;;8.90;4.40;;;9.00;99.90;;;;;;5097510;28;20368;-75
2022/10/10 03:06:36;;;;;;;10.27;4.43;;;9.00;99.90;;;;;;5095396;28;20043;-75
2022/10/10 03:09:02;;;;;;;8.98;4.63;;;9.00;99.90;;;;;;5115556;28;20544;-74
2022/10/10 03:11:28;;;;;;;7.78;4.88;;;9.00;99.90;;;;;;5087904;28;20078;-74
2022/10/10 03:13:53;;;;;;;10.80;5.00;;;9.00;99.90;;;;;;5079858;28;20496;-74
2022/10/10 03:16:19;;;;;;;8.57;4.80;;;9.00;99.90;;;;;;5095455;28;20081;-74
2022/10/10 03:18:45;;;;;;;9.35;4.82;;;9.00;99.90;;;;;;5099351;28;20480;-74
2022/10/10 03:21:10;;;;;;;9.90;5.10;;;9.00;99.90;;;;;;5092931;28;20048;-74
2022/10/10 03:23:36;;;;;;;8.73;5.35;;;10.10;99.90;;;;;;5076955;28;20040;-74
2022/10/10 03:26:03;;;;;;;6.95;4.50;;;8.90;99.90;;;;;;5094047;28;20035;-75
2022/10/10 03:28:29;;;;;;;8.60;4.78;;;8.90;99.90;;;;;;5094474;28;20040;-74
2022/10/10 03:30:54;;;;;;;7.45;5.00;;;9.00;99.90;;;;;;5095028;28;20492;-74
2022/10/10 03:33:21;;;;;;;7.55;4.88;;;9.50;99.90;;;;;;5076937;28;20109;-74
2022/10/10 03:35:47;;;;;;;9.20;5.15;;;9.00;99.90;;;;;;5094954;28;20501;-74
2022/10/10 03:38:13;;;;;;;9.18;5.15;;;9.00;99.90;;;;;;5077347;28;20508;-74
2022/10/10 03:40:42;;;;;;;9.20;5.43;;;8.90;99.90;;;;;;5111801;28;20047;-74
2022/10/10 03:43:10;;;;;;;9.35;5.25;;;8.90;99.90;;;;;;5114980;28;20044;-74
2022/10/10 03:45:36;;;;;;;8.80;5.15;;;8.90;99.90;;;;;;5096771;28;20126;-74
2022/10/10 03:48:02;;;;;;;7.47;5.13;;;8.90;99.90;;;;;;5115270;28;20050;-74
2022/10/10 03:50:28;;;;;;;8.57;5.50;;;9.00;99.90;;;;;;5115300;28;20445;-74
2022/10/10 03:52:53;;;;;;;10.13;5.00;;;8.90;99.90;;;;;;5096797;28;20044;-74
2022/10/10 03:55:19;;;;;;;7.38;5.40;;;9.00;99.90;;;;;;5113043;28;20047;-74
2022/10/10 03:57:44;;;;;;;10.57;5.57;;;9.00;99.90;;;;;;5105679;28;20373;-74
2022/10/10 04:00:11;;;;;;;10.35;5.40;;;9.00;99.90;;;;;;5114777;28;20150;-74
2022/10/10 04:02:36;;;;;;;10.63;5.40;;;9.00;99.90;;;;;;5114600;28;20036;-74
2022/10/10 04:05:03;;;;;;;9.20;5.90;;;9.00;99.90;;;;;;5115095;28;20040;-74
2022/10/10 04:07:29;;;;;;;9.95;5.70;;;9.00;99.90;;;;;;5114960;28;20044;-74
2022/10/10 04:09:55;;;;;;;8.32;5.55;;;9.10;99.90;;;;;;5106622;28;20051;-74
2022/10/10 04:12:20;;;;;;;10.93;5.80;;;9.10;99.90;;;;;;5094176;28;20036;-74
2022/10/10 04:14:46;;;;;;;10.25;5.68;;;9.10;99.90;;;;;;5103883;28;20132;-74
2022/10/10 04:17:12;;;;;;;9.35;5.65;;;10.40;99.90;;;;;;5113960;28;20032;-74
2022/10/10 04:19:37;;;;;;;9.57;6.00;;;9.10;99.90;;;;;;5066811;28;20040;-74
2022/10/10 04:22:03;;;;;;;7.75;5.55;;;9.10;99.90;;;;;;5096364;28;20047;-74
2022/10/10 04:24:29;;;;;;;7.97;5.45;;;10.10;99.90;;;;;;5114421;28;20449;-74
2022/10/10 04:26:55;;;;;;;10.13;6.05;;;9.10;99.90;;;;;;5114344;28;20043;-74
2022/10/10 04:29:20;;;;;;;9.27;6.28;;;9.10;99.90;;;;;;5079505;28;20046;-74
2022/10/10 04:31:46;;;;;;;9.75;5.68;;;9.10;99.90;;;;;;5096074;28;20130;-74
2022/10/10 04:34:12;;;;;;;10.45;5.80;;;9.10;99.90;;;;;;5108558;28;20237;-74
2022/10/10 04:36:37;;;;;;;9.77;5.95;;;9.00;99.90;;;;;;5081843;28;20059;-74
2022/10/10 04:39:03;;;;;;;10.32;6.50;;;9.00;99.90;;;;;;5093692;28;20393;-74
2022/10/10 04:41:28;;;;;;;10.68;5.82;;;9.00;99.90;;;;;;5093049;28;20051;-74
2022/10/10 04:43:54;;;;;;;8.32;6.10;;;8.90;99.90;;;;;;5092814;28;20035;-74
2022/10/10 04:46:20;;;;;;;9.35;6.25;;;8.90;99.90;;;;;;5075479;28;20040;-74
2022/10/10 04:48:45;;;;;;;11.40;6.53;;;8.90;99.90;;;;;;5083962;28;20048;-74
2022/10/10 04:51:11;;;;;;;8.43;6.03;;;8.90;99.90;;;;;;5093344;28;20040;-74
2022/10/10 04:53:36;;;;;;;9.82;6.38;;;8.80;99.90;;;;;;5093359;28;20068;-74
2022/10/10 04:56:02;;;;;;;10.25;6.63;;;8.80;99.90;;;;;;5074958;28;20051;-74
2022/10/10 04:58:28;;;;;;;8.55;5.88;;;8.80;99.90;;;;;;5091415;28;20032;-74
2022/10/10 05:00:54;;;;;;;8.88;6.40;;;10.10;99.90;;;;;;5093193;28;20127;-74
2022/10/10 05:03:21;;;;;;;9.02;6.38;;;8.80;99.90;;;;;;5094532;28;20100;-74
2022/10/10 05:05:47;;;;;;;10.60;6.60;;;8.80;99.90;;;;;;5074661;28;20147;-74
2022/10/10 05:08:15;;;;;;;11.40;6.65;;;8.70;99.90;;;;;;5094759;28;20043;-74
2022/10/10 05:10:41;;;;;;;10.75;6.55;;;8.70;99.90;;;;;;5093488;28;20058;-74
2022/10/10 05:13:10;;;;;;;11.73;6.63;;;8.70;99.90;;;;;;5091239;28;20031;-74
2022/10/10 05:15:36;;;;;;;13.25;7.07;;;8.70;99.90;;;;;;5094401;28;20063;-77
2022/10/10 05:18:03;;;;;;;8.63;6.40;;;9.10;99.90;;;;;;5113334;28;20058;-74
2022/10/10 05:20:30;;;;;;;10.50;6.70;;;8.60;99.90;;;;;;5101096;28;20040;-74
2022/10/10 05:22:55;;;;;;;12.07;7.05;;;8.70;99.90;;;;;;5085814;28;20085;-74
2022/10/10 05:25:21;;;;;;;12.00;7.72;;;9.30;99.90;;;;;;5092415;28;20492;-74
2022/10/10 05:27:47;;;;;;;13.13;7.13;;;8.70;99.90;;;;;;5091476;28;20058;-74
2022/10/10 05:30:13;;;;;;;12.07;6.95;;;8.70;99.90;;;;;;5058212;28;20489;-74
2022/10/10 05:32:38;;;;;;;11.90;7.00;;;8.70;99.90;;;;;;5074069;28;20060;-74
2022/10/10 05:35:05;;;;;;;11.80;7.10;;;9.70;99.90;;;;;;5092277;28;20056;-75
2022/10/10 05:37:31;;;;;;;13.40;7.20;;;8.60;99.90;;;;;;5093362;28;20173;-75
2022/10/10 05:39:56;;;;;;;8.73;6.95;;;8.60;99.90;;;;;;5095527;28;20043;-74
2022/10/10 05:42:22;;;;;;;10.82;7.28;;;8.60;99.90;;;;;;5111202;28;20534;-74
2022/10/10 05:44:48;;;;;;;12.30;6.97;;;8.70;99.90;;;;;;5112924;28;20043;-74
2022/10/10 05:47:14;;;;;;;13.05;7.00;;;8.60;99.90;;;;;;5094346;28;20051;-74
2022/10/10 05:49:39;;;;;;;10.35;7.30;;;8.60;99.90;;;;;;5094618;28;20150;-74
2022/10/10 05:52:05;;;;;;;11.10;7.18;;;8.50;99.90;;;;;;5094339;28;20055;-75
2022/10/10 05:54:30;;;;;;;10.02;6.80;;;8.50;99.90;;;;;;5098690;28;20123;-75
2022/10/10 05:56:56;;;;;;;14.55;8.07;;;8.50;99.90;;;;;;5102064;28;20042;-74
2022/10/10 05:59:22;;;;;;;13.13;7.68;;;8.50;99.90;;;;;;5092325;28;20127;-75
2022/10/10 06:01:47;;;;;;;12.43;7.30;;;8.60;99.90;;;;;;5075085;28;20044;-76
2022/10/10 06:04:13;;;;;;;10.95;7.57;;;8.60;99.90;;;;;;5093364;28;20044;-77
2022/10/10 06:06:39;;;;;;;11.57;7.60;;;8.50;99.90;;;;;;5073529;28;20036;-75
2022/10/10 06:09:04;;;;;;;12.85;7.43;;;8.50;99.90;;;;;;5073031;28;20135;-75
2022/10/10 06:11:30;;;;;;;11.80;7.90;;;8.50;99.90;;;;;;5091973;28;20040;-75
2022/10/10 06:13:56;;;;;;;12.27;7.60;;;8.60;99.90;;;;;;5079899;28;20123;-75
2022/10/10 06:16:24;;;;;;;11.73;7.50;;;8.60;99.90;;;;;;5090873;28;20040;-75
2022/10/10 06:18:51;;;;;;;12.27;7.72;;;8.60;99.90;;;;;;5074880;28;20397;-76
2022/10/10 06:21:17;;;;;;;9.75;6.95;;;10.00;99.90;;;;;;5077768;28;20086;-77
2022/10/10 06:23:43;;;;;;;9.60;7.68;;;8.70;99.90;;;;;;5077898;28;20108;-76
2022/10/10 06:26:09;;;;;;;10.90;7.15;;;8.70;99.90;;;;;;5077387;28;20048;-77
2022/10/10 06:28:36;;;;;;;9.90;7.75;;;8.70;99.90;;;;;;5077970;28;20484;-77
2022/10/10 06:31:04;;;;;;;14.90;7.30;;;8.80;99.90;;;;;;5077630;28;20071;-77
2022/10/10 06:33:31;;;;;;;13.55;7.25;;;8.80;99.90;;;;;;5077885;28;20489;-77
2022/10/10 06:35:57;;;;;;;11.80;7.18;;;8.80;99.90;;;;;;5077566;28;20040;-77
2022/10/10 06:38:24;;;;;;;9.88;7.07;;;8.90;99.90;;;;;;5095642;28;20048;-77
2022/10/10 06:40:50;;;;;;;10.15;7.28;;;10.30;99.90;;;;;;5095785;28;20076;-77
2022/10/10 06:43:16;;;;;;;10.90;7.03;;;9.70;99.90;;;;;;5095917;28;20121;-77
2022/10/10 06:45:44;;;;;;;14.07;7.28;;;9.20;99.90;;;;;;5093184;28;20052;-77
2022/10/10 06:48:11;;;;;;;11.70;7.15;;;10.80;99.90;;;;;;5103859;28;20044;-77
2022/10/10 06:50:37;;;;;;;12.77;7.55;;;9.50;99.90;;;;;;5097234;28;20036;-77
2022/10/10 06:53:03;;;;;;;10.70;6.85;;;9.80;99.90;;;;;;5100815;28;20039;-77
2022/10/10 06:55:29;;;;;;;11.05;7.35;;;9.80;99.90;;;;;;5097753;28;20050;-77
2022/10/10 06:57:55;;;;;;;12.05;6.68;;;11.10;99.90;;;;;;5116037;28;20047;-77
2022/10/10 07:00:20;;;;;;;11.18;6.97;;;10.00;99.90;;;;;;5097416;28;20083;-77
2022/10/10 07:02:46;;;;;;;11.63;7.07;;;10.80;99.90;;;;;;5096988;28;20036;-77
2022/10/10 07:05:15;;;;;;;11.55;6.70;;;10.00;99.90;;;;;;5087173;28;20230;-77
2022/10/10 07:07:41;;;;;;;9.75;6.82;;;10.10;99.90;;;;;;5094893;28;20127;-77
2022/10/10 07:10:10;;;;;;;13.15;6.45;;;10.00;99.90;;;;;;5095266;28;20407;-77
2022/10/10 07:12:37;;;;;;;12.57;6.65;;;9.90;99.90;;;;;;5094489;28;20080;-78
2022/10/10 07:15:03;;;;;;;13.18;7.18;;;10.60;99.90;;;;;;5092814;28;20059;-77
2022/10/10 07:17:30;;;;;;;11.82;6.63;;;9.90;99.90;;;;;;5114485;28;20047;-77
2022/10/10 07:19:56;;;;;;;13.50;7.20;;;10.00;99.90;;;;;;5110388;28;20044;-76
2022/10/10 07:22:21;;;;;;;9.85;6.88;;;10.70;99.90;;;;;;5076423;28;20101;-75
2022/10/10 07:24:47;;;;;;;11.93;6.65;;;10.10;99.90;;;;;;5099045;28;20032;-77
2022/10/10 07:27:13;;;;;;;14.10;7.47;;;10.20;99.90;;;;;;5076810;28;20062;-77
2022/10/10 07:29:38;;;;;;;13.07;7.35;;;11.30;99.90;;;;;;5095082;28;20136;-75
2022/10/10 07:32:04;;;;;;;11.55;7.07;;;11.90;99.90;;;;;;5059294;28;20123;-75
2022/10/10 07:34:30;;;;;;;12.05;7.05;;;10.70;99.90;;;;;;5077411;28;20088;-76
2022/10/10 07:36:56;;;;;;;11.45;7.00;;;10.90;99.90;;;;;;5094530;28;20056;-75
2022/10/10 07:39:23;;;;;;;11.95;6.93;;;10.70;99.90;;;;;;5093476;28;20127;-76
2022/10/10 07:41:49;;;;;;;10.20;6.95;;;10.80;99.90;;;;;;5094416;28;20048;-78
2022/10/10 07:44:15;;;;;;;10.48;6.55;;;10.70;99.90;;;;;;5076531;28;20066;-78
2022/10/10 07:46:40;;;;;;;14.70;7.30;;;12.10;99.90;;;;;;5076479;28;20089;-78
2022/10/10 07:49:06;;;;;;;12.73;7.53;;;9.80;99.90;;;;;;5076255;28;20044;-77
2022/10/10 07:51:32;;;;;;;12.15;7.47;;;11.30;99.90;;;;;;5095151;28;20054;-80
2022/10/10 07:53:58;;;;;;;12.95;7.22;;;11.50;99.90;;;;;;5076619;28;20111;-80
2022/10/10 07:56:24;;;;;;;10.18;7.03;;;10.90;99.90;;;;;;5073996;28;20131;-80
2022/10/10 07:58:50;;;;;;;12.05;7.35;;;11.10;99.90;;;;;;5094427;28;20047;-80
2022/10/10 08:01:15;;;;;;;14.27;7.15;;;11.70;99.90;;;;;;5094087;28;20083;-79
2022/10/10 08:03:41;;;;;;;9.85;7.60;;;11.20;99.90;;;;;;5076368;28;20071;-80
2022/10/10 08:06:13;;;;;;;10.82;6.82;;;11.70;99.90;;;;;;5076061;28;20048;-80
2022/10/10 08:08:40;;;;;;;11.68;6.40;;;12.20;99.90;;;;;;5076190;28;20190;-80
2022/10/10 08:11:07;;;;;;;10.13;6.50;;;12.40;99.90;;;;;;5094144;28;20070;-79
2022/10/10 08:13:34;;;;;;;10.90;6.65;;;11.70;99.90;;;;;;5076118;28;20090;-79
2022/10/10 08:16:01;;;;;;;11.52;6.65;;;11.80;99.90;;;;;;5075761;28;20050;-78
2022/10/10 08:18:27;;;;;;;9.68;6.53;;;12.00;99.90;;;;;;5095135;28;20512;-78
2022/10/10 08:21:00;;;;;;;9.52;7.10;;;12.10;99.90;;;;;;5075499;28;20056;-79
2022/10/10 08:23:26;;;;;;;14.23;7.32;;;12.20;99.90;;;;;;5083725;28;20035;-79
2022/10/10 08:25:52;;;;;;;13.02;6.35;;;;;;;;;;5095919;28;20043;-78
2022/10/10 08:28:18;;;;;;;13.10;6.95;;;;;;;;;;5095704;28;20051;-78
2022/10/10 08:30:44;;;;;;;9.07;6.32;;;;;;;;;;5103314;28;20047;-78
2022/10/10 08:33:10;;;;;;;11.02;6.28;;;;;;;;;;5110406;28;20488;-77
2022/10/10 08:35:37;;;;;;;11.45;6.78;;;;;;;;;;5114033;28;20035;-76
2022/10/10 08:38:04;;;;;;;9.00;6.50;;;;;;;;;;5095756;28;20059;-76
2022/10/10 08:40:30;;;;;;;11.98;6.25;;;;;;;;;;5095516;28;20087;-77
2022/10/10 08:42:57;;;;;;;10.05;6.32;;;;;;;;;;5077037;28;20039;-77
2022/10/10 08:45:25;;;;;;;11.57;6.18;;;;;;;;;;5099982;28;20087;-78
2022/10/10 08:47:54;;;;;;;9.80;6.50;;;;;;;;;;5093381;28;20395;-78
2022/10/10 08:50:23;;;;;;;9.77;6.10;;;;;;;;;;5093232;28;20048;-78
2022/10/10 08:52:51;;;;;;;9.70;6.57;;;;;;;;;;5075042;28;20391;-78
2022/10/10 08:55:21;;;;;;;10.52;6.47;;;;;;;;;;5075126;28;20128;-78
2022/10/10 08:57:53;;;;;;;9.75;6.28;;;;;;;;;;5093151;28;20080;-78
2022/10/10 09:00:21;;;;;;;10.65;6.68;;;;;;;;;;5093790;28;20130;-78
2022/10/10 09:02:49;;;;;;;11.05;6.05;;;;;;;;;;5092867;28;20395;-78
2022/10/10 09:05:17;;;;;;;11.00;6.28;;;;;;;;;;5058099;28;20044;-78
2022/10/10 09:07:46;;;;;;;9.68;6.20;;;;;;;;;;5074921;28;20040;-77
2022/10/10 09:10:22;;;;;;;9.45;5.78;;;;;;;;;;5093116;28;20051;-78
2022/10/10 09:13:24;;;;;;;10.40;6.43;;;;;;;;;;5074689;28;20044;-78
2022/10/10 09:15:58;;;;;;;11.05;6.53;;;;;;;;;;4991048;28;20092;-79
2022/10/10 09:18:24;;;;;;;10.13;5.60;;;;;;;;;;5078508;28;20066;-79
2022/10/10 09:21:05;;;;;;;8.88;5.75;;;;;;;;;;5074414;28;20044;-79
2022/10/10 09:23:36;;;;;;;11.43;5.93;;;;;;;;;;5093018;28;20032;-79
2022/10/10 09:26:12;;;;;;;8.93;5.97;;;;;;;;;;5074414;28;20134;-79
2022/10/10 09:28:41;;;;;;;8.05;5.57;;;;;;;;;;5093527;28;20097;-78
2022/10/10 09:31:19;;;;;;;10.30;6.22;;;;;;;;;;5092409;28;20039;-78
2022/10/10 09:33:48;;;;;;;12.50;6.10;;;;;;;;;;5073240;28;20185;-78
2022/10/10 09:36:18;;;;;;;15.68;6.30;;;;;;;;;;5074190;28;20110;-78
2022/10/10 09:38:47;;;;;;;10.40;5.93;;;;;;;;;;5092692;28;20043;-78
2022/10/10 09:41:28;;;;;;;11.38;6.00;;;;;;;;;;5092502;28;20395;-78
2022/10/10 09:43:55;;;;;;;9.88;5.78;;;;;;;;;;5092799;28;20378;-78
2022/10/10 09:46:21;;;;;;;11.38;5.78;;;;;;;;;;5074501;28;20071;-78
2022/10/10 09:48:47;;;;;;;12.52;5.82;;;;;;;;;;5074574;28;20044;-79
2022/10/10 09:51:18;;;;;;;11.18;5.80;;;;;;;;;;5057198;28;20036;-78
2022/10/10 09:53:44;;;;;;;11.35;5.85;;;;;;;;;;5074666;28;20044;-78
2022/10/10 09:56:22;;;;;;;11.20;6.20;;;;;;;;;;5082733;28;20036;-78
2022/10/10 09:58:49;;;;;;;9.55;6.20;;;;;;;;;;5094536;28;20136;-78
2022/10/10 10:01:27;;;;;;;10.93;6.05;;;;;;;;;;5112080;28;20039;-79
2022/10/10 10:04:15;;;;;;;10.02;5.63;;;;;;;;;;5094433;28;20061;-78
2022/10/10 10:06:43;;;;;;;8.68;5.47;;;;;;;;;;5111577;28;20400;-78
2022/10/10 10:09:11;;;;;;;10.77;5.88;;;;;;;;;;5112911;28;20126;-79
2022/10/10 10:11:38;;;;;;;12.63;6.28;;;;;;;;;;5093915;28;20046;-79
2022/10/10 10:14:04;;;;;;;9.30;5.97;;;;;;;;;;5112399;28;20096;-78
2022/10/10 10:16:32;;;;;;;8.90;4.82;;;;;;;;;;5094072;28;20040;-78
2022/10/10 10:18:59;;;;;;;10.43;5.38;;;;;;;;;;5112768;28;20044;-79
2022/10/10 10:21:25;;;;;;;10.02;5.93;;;;;;;;;;5112181;28;20078;-79
2022/10/10 10:23:59;;;;;;;11.27;5.82;;;;;;;;;;5094413;28;20047;-79
2022/10/10 10:26:27;;;;;;;11.63;6.03;;;;;;;;;;5112529;28;20035;-79
2022/10/10 10:28:54;;;;;;;11.38;5.80;;;;;;;;;;5094092;28;20071;-79
2022/10/10 10:31:39;;;;;;;10.13;5.72;;;;;;;;;;5111632;28;20449;-79
2022/10/10 10:34:15;;;;;;;9.98;5.95;;;;;;;;;;5093724;28;20063;-79
2022/10/10 10:36:54;;;;;;;10.23;5.78;;;;;;;;;;5093806;28;20096;-79
2022/10/10 10:39:39;;;;;;;13.40;6.70;;;;;;;;;;5111185;28;20164;-79
2022/10/10 10:42:23;;;;;;;10.50;5.80;;;;;;;;;;5111888;28;20047;-79
2022/10/10 10:44:55;;;;;;;10.25;5.63;;;;;;;;;;5085576;28;20044;-79
2022/10/10 10:47:39;;;;;;;9.93;6.30;;;12.60;99.90;;;;;;5091872;28;20044;-79
2022/10/10 10:50:27;;;;;;;11.48;5.60;;;21.00;99.90;;;;;;5073552;28;20130;-80
2022/10/10 10:53:02;;;;;;;8.05;5.10;;;21.50;99.90;;;;;;5073307;28;20201;-79
2022/10/10 10:55:39;;;;;;;9.38;5.32;;;21.60;99.90;;;;;;5090827;28;20353;-79
2022/10/10 10:58:44;;;;;;;12.15;5.20;;;;;;;;;;5091445;28;20175;-79
2022/10/10 11:01:14;;;;;;;9.02;4.97;;;;;;;;;;4989637;28;20108;-79
2022/10/10 11:03:40;;;;;;;9.10;5.22;;;;;;;;;;4990006;28;20454;-79
2022/10/10 11:06:06;;;;;;;10.48;5.65;;;;;;;;;;5040710;28;20052;-79
2022/10/10 11:08:51;;;;;;;10.30;5.25;;;;;;;;;;5076452;28;20043;-79
2022/10/10 11:11:20;;;;;;;11.90;5.95;;;;;;;;;;5095177;28;20084;-79
2022/10/10 11:13:59;;;;;;;7.55;5.10;;;;;;;;;;5077120;28;20041;-78
2022/10/10 11:16:29;;;;;;;8.85;5.75;;;;;;;;;;5076965;28;20047;-78
2022/10/10 11:19:55;;;;;;;10.35;5.68;;;21.20;99.90;;;;;;5077304;28;20041;-79
2022/10/10 11:22:25;;;;;;;9.15;5.63;;;17.80;99.90;;;;;;5041261;28;20060;-79
2022/10/10 11:24:57;;;;;;;11.90;5.65;;;17.40;99.90;;;;;;5077055;28;20040;-80
2022/10/10 11:27:40;;;;;;;10.48;5.85;;;17.70;99.90;;;;;;5094896;28;20051;-80
2022/10/10 11:30:37;;;;;;;12.40;6.20;;;17.10;99.90;;;;;;5060240;28;20168;-80
2022/10/10 11:33:11;;;;;;;11.80;6.22;;;16.80;99.90;;;;;;5075989;28;20102;-80
2022/10/10 11:35:43;;;;;;;13.27;6.00;;;17.30;99.90;;;;;;5076609;28;20473;-80
2022/10/10 11:38:11;;;;;;;14.25;6.10;;;16.60;99.90;;;;;;5076715;28;20043;-80
2022/10/10 11:40:46;;;;;;;10.90;6.20;;;16.40;99.90;;;;;;5076572;28;20382;-79
2022/10/10 11:43:23;;;;;;;13.50;6.30;;;16.40;99.90;;;;;;5076507;28;20097;-80
2022/10/10 11:45:58;;;;;;;11.13;6.40;;;16.30;99.90;;;;;;5076612;28;20115;-80
2022/10/10 11:48:40;;;;;;;14.70;6.75;;;16.40;99.90;;;;;;5077280;28;20040;-81
2022/10/10 11:51:22;;;;;;;11.75;6.30;;;16.00;99.90;;;;;;5094470;28;20088;-80
2022/10/10 11:53:50;;;;;;;13.00;6.80;;;15.90;99.90;;;;;;5095052;28;20040;-79
2022/10/10 11:56:36;;;;;;;13.60;7.05;;;15.90;99.90;;;;;;5076289;28;20144;-80
2022/10/10 11:59:20;;;;;;;13.00;7.32;;;15.90;99.90;;;;;;5059981;28;20051;-80
2022/10/10 12:01:49;;;;;;;12.15;7.43;;;15.90;99.90;;;;;;5094365;28;20426;-80
2022/10/10 12:04:15;;;;;;;10.93;7.00;;;15.70;99.90;;;;;;5094310;28;20511;-80
2022/10/10 12:06:48;;;;;;;12.13;7.50;;;16.00;99.90;;;;;;5091561;28;20090;-80
2022/10/10 12:09:22;;;;;;;12.00;7.50;;;15.70;99.90;;;;;;5074351;28;20044;-80
2022/10/10 12:11:58;;;;;;;15.32;7.90;;;15.70;99.90;;;;;;5075414;28;20040;-80
2022/10/10 12:14:26;;;;;;;13.90;8.25;;;15.70;99.90;;;;;;5076188;28;20051;-80
2022/10/10 12:16:52;;;;;;;13.85;8.50;;;15.70;99.90;;;;;;5075773;28;20082;-80
2022/10/10 12:19:20;;;;;;;14.20;7.95;;;15.60;99.90;;;;;;5074871;28;20088;-80
2022/10/10 12:22:07;;;;;;;15.73;8.52;;;16.20;99.90;;;;;;5059894;28;20036;-79
2022/10/10 12:25:14;;;;;;;17.08;8.13;;;15.50;99.90;;;;;;5104443;28;20047;-80
2022/10/10 12:27:46;;;;;;;14.93;9.45;;;15.50;99.90;;;;;;5058012;28;20044;-79
2022/10/10 12:30:17;;;;;;;14.90;8.68;;;15.50;99.90;;;;;;5103148;28;20044;-79
2022/10/10 12:32:44;;;;;;;16.02;9.27;;;15.40;99.90;;;;;;5096216;28;20444;-79
2022/10/10 12:35:34;;;;;;;16.70;9.65;;;15.30;99.90;;;;;;5114389;28;20101;-78
2022/10/10 12:38:18;;;;;;;17.35;9.07;;;15.30;99.90;;;;;;5094193;28;20403;-79
2022/10/10 12:40:56;;;;;;;14.60;9.52;;;15.20;99.90;;;;;;5064426;28;20053;-78
2022/10/10 12:43:35;;;;;;;18.33;9.75;;;15.40;99.90;;;;;;5075105;28;20055;-78
2022/10/10 12:46:20;;;;;;;16.35;9.35;;;15.70;99.90;;;;;;5093312;28;20074;-78
2022/10/10 12:49:00;;;;;;;17.20;9.32;;;15.10;99.90;;;;;;5093777;28;20180;-78
2022/10/10 12:51:27;;;;;;;13.73;9.20;;;15.10;99.90;;;;;;5111847;28;20036;-79
2022/10/10 12:53:56;;;;;;;20.33;9.52;;;15.00;99.90;;;;;;5091015;28;20056;-78
2022/10/10 12:56:40;;;;;;;18.83;9.85;;;15.30;99.90;;;;;;5103799;28;20167;-78
2022/10/10 12:59:17;;;;;;;17.70;9.80;;;15.40;99.90;;;;;;5095662;28;20047;-78
2022/10/10 13:01:49;;;;;;;16.23;9.65;;;14.40;99.90;;;;;;5094571;28;20468;-78
2022/10/10 13:04:16;;;;;;;18.27;9.32;;;14.90;99.90;;;;;;5113542;28;20092;-78
2022/10/10 13:06:44;;;;;;;16.70;9.98;;;14.90;99.90;;;;;;5113085;28;20035;-78
2022/10/10 13:09:22;;;;;;;21.08;10.82;;;16.00;99.90;;;;;;5095426;28;20046;-78
2022/10/10 13:12:05;;;;;;;13.93;9.27;;;14.80;99.90;;;;;;5112762;28;20044;-78
2022/10/10 13:14:43;;;;;;;18.80;10.10;;;14.70;99.90;;;;;;5095394;28;20036;-79
2022/10/10 13:17:28;;;;;;;15.18;9.85;;;14.70;99.90;;;;;;5095073;28;20509;-77
2022/10/10 13:19:56;;;;;;;19.87;10.77;;;14.70;99.90;;;;;;5112477;28;20039;-77
2022/10/10 13:22:23;;;;;;;17.73;10.55;;;14.70;99.90;;;;;;5091950;28;20076;-78